createdAt,value
2023-04-15T00:00:39.357Z,43.24
2023-04-15T00:01:39.369Z,43.25
2023-04-15T00:02:39.449Z,43.24
2023-04-15T00:03:39.567Z,43.22
2023-04-15T00:04:39.411Z,43.23
2023-04-15T00:05:39.328Z,43.22
2023-04-15T00:06:39.336Z,43.18
2023-04-15T00:07:39.396Z,43.17
2023-04-15T00:08:39.413Z,43.18
2023-04-15T00:09:39.462Z,43.13
2023-04-15T00:10:39.493Z,43.11
2023-04-15T00:11:39.540Z,43.09
2023-04-15T00:12:40.411Z,43.10
2023-04-15T00:13:39.645Z,43.11
2023-04-15T00:14:39.682Z,43.06
2023-04-15T00:15:39.723Z,43.06
2023-04-15T00:16:39.795Z,43.07
2023-04-15T00:17:39.844Z,43.06
2023-04-15T00:18:39.874Z,43.06
2023-04-15T00:19:39.932Z,43.04
2023-04-15T00:20:39.977Z,43.05
2023-04-15T00:21:40.048Z,43.07
2023-04-15T00:22:40.078Z,43.07
2023-04-15T00:23:40.125Z,43.06
2023-04-15T00:24:40.170Z,43.06
2023-04-15T00:25:40.219Z,43.08
2023-04-15T00:26:40.269Z,43.06
2023-04-15T00:27:40.313Z,43.05
2023-04-15T00:28:40.355Z,43.00
2023-04-15T00:29:40.409Z,43.03
2023-04-15T00:30:40.511Z,43.02
2023-04-15T00:31:40.493Z,43.00
2023-04-15T00:32:40.611Z,43.01
2023-04-15T00:33:40.601Z,43.02
2023-04-15T00:34:40.729Z,43.00
2023-04-15T00:35:40.696Z,43.02
2023-04-15T00:36:41.455Z,43.02
2023-04-15T00:37:40.794Z,42.97
2023-04-15T00:38:40.857Z,42.99
2023-04-15T00:39:40.912Z,42.92
2023-04-15T00:40:40.951Z,42.98
2023-04-15T00:41:40.997Z,42.98
2023-04-15T00:42:41.148Z,42.94
2023-04-15T00:43:41.103Z,42.97
2023-04-15T00:44:41.168Z,42.96
2023-04-15T00:45:41.221Z,42.89
2023-04-15T00:46:41.248Z,42.90
2023-04-15T00:47:41.353Z,42.92
2023-04-15T00:48:41.359Z,42.89
2023-04-15T00:49:41.414Z,42.89
2023-04-15T00:50:41.468Z,42.90
2023-04-15T00:51:41.517Z,42.88
2023-04-15T00:52:41.575Z,42.84
2023-04-15T00:53:41.624Z,42.82
2023-04-15T00:54:41.675Z,42.82
2023-04-15T00:55:41.729Z,42.85
2023-04-15T00:56:41.767Z,42.85
2023-04-15T00:57:41.850Z,42.84
2023-04-15T00:58:41.882Z,42.82
2023-04-15T00:59:41.929Z,42.79
2023-04-15T01:00:41.975Z,42.77
2023-04-15T01:01:42.080Z,42.76
2023-04-15T01:02:42.229Z,42.74
2023-04-15T01:03:43.114Z,42.76
2023-04-15T01:04:42.233Z,42.77
2023-04-15T01:05:42.270Z,42.76
2023-04-15T01:06:42.384Z,42.71
2023-04-15T01:07:42.368Z,42.68
2023-04-15T01:08:42.429Z,42.70
2023-04-15T01:09:42.491Z,42.72
2023-04-15T01:10:42.535Z,42.67
2023-04-15T01:11:42.590Z,42.66
2023-04-15T01:12:42.641Z,42.68
2023-04-15T01:13:42.704Z,42.68
2023-04-15T01:14:42.747Z,42.72
2023-04-15T01:15:42.843Z,42.70
2023-04-15T01:16:42.858Z,42.66
2023-04-15T01:17:42.981Z,42.65
2023-04-15T01:18:42.973Z,42.63
2023-04-15T01:19:43.032Z,42.67
2023-04-15T01:20:43.115Z,42.65
2023-04-15T01:21:43.120Z,42.67
2023-04-15T01:22:43.182Z,42.67
2023-04-15T01:23:43.224Z,42.68
2023-04-15T01:24:43.292Z,42.63
2023-04-15T01:25:43.916Z,42.61
2023-04-15T01:26:44.568Z,42.57
2023-04-15T01:27:43.453Z,42.61
2023-04-15T01:28:43.549Z,42.57
2023-04-15T01:29:43.566Z,42.58
2023-04-15T01:30:43.610Z,42.60
2023-04-15T01:31:43.700Z,42.53
2023-04-15T01:32:43.765Z,42.56
2023-04-15T01:33:43.777Z,42.57
2023-04-15T01:34:43.835Z,42.52
2023-04-15T01:35:43.884Z,42.56
2023-04-15T01:36:43.930Z,42.56
2023-04-15T01:37:44.004Z,42.54
2023-04-15T01:38:44.423Z,42.50
2023-04-15T01:39:44.105Z,42.50
2023-04-15T01:40:44.166Z,42.47
2023-04-15T01:41:44.205Z,42.44
2023-04-15T01:42:44.256Z,42.41
2023-04-15T01:43:44.301Z,42.39
2023-04-15T01:44:44.376Z,42.46
2023-04-15T01:45:44.417Z,42.40
2023-04-15T01:46:44.505Z,42.41
2023-04-15T01:47:44.583Z,42.41
2023-04-15T01:48:44.584Z,42.39
2023-04-15T01:49:44.642Z,42.37
2023-04-15T01:50:44.697Z,42.34
2023-04-15T01:51:44.752Z,42.41
2023-04-15T01:52:44.866Z,42.32
2023-04-15T01:53:44.860Z,42.31
2023-04-15T01:54:44.916Z,42.37
2023-04-15T01:55:44.969Z,42.35
2023-04-15T01:56:45.038Z,42.36
2023-04-15T01:57:45.086Z,42.37
2023-04-15T01:58:45.147Z,42.32
2023-04-15T01:59:45.222Z,42.30
2023-04-15T02:00:45.314Z,42.35
2023-04-15T02:01:45.339Z,42.33
2023-04-15T02:02:45.512Z,42.32
2023-04-15T02:03:45.567Z,42.30
2023-04-15T02:04:45.522Z,42.27
2023-04-15T02:05:46.437Z,42.24
2023-04-15T02:06:45.605Z,42.24
2023-04-15T02:07:45.660Z,42.25
2023-04-15T02:08:45.715Z,42.24
2023-04-15T02:09:45.791Z,42.24
2023-04-15T02:10:45.841Z,42.15
2023-04-15T02:11:45.916Z,42.18
2023-04-15T02:12:45.958Z,42.18
2023-04-15T02:13:46.028Z,42.18
2023-04-15T02:14:46.097Z,42.13
2023-04-15T02:15:46.146Z,42.05
2023-04-15T02:16:46.227Z,42.10
2023-04-15T02:17:46.416Z,42.09
2023-04-15T02:18:46.334Z,42.11
2023-04-15T02:19:46.385Z,42.11
2023-04-15T02:20:46.430Z,42.11
2023-04-15T02:21:46.488Z,42.10
2023-04-15T02:22:46.553Z,42.09
2023-04-15T02:23:46.621Z,42.12
2023-04-15T02:24:46.683Z,42.06
2023-04-15T02:25:53.859Z,42.05
2023-04-15T02:26:47.729Z,42.09
2023-04-15T02:27:46.732Z,42.07
2023-04-15T02:28:46.729Z,42.07
2023-04-15T02:29:46.740Z,42.07
2023-04-15T02:30:46.742Z,42.06
2023-04-15T02:31:46.832Z,42.07
2023-04-15T02:32:46.762Z,42.06
2023-04-15T02:33:46.738Z,41.99
2023-04-15T02:34:46.760Z,42.06
2023-04-15T02:35:46.752Z,42.04
2023-04-15T02:36:46.867Z,42.04
2023-04-15T02:37:46.868Z,42.07
2023-04-15T02:38:46.978Z,42.04
2023-04-15T02:39:46.995Z,42.03
2023-04-15T02:40:47.059Z,42.05
2023-04-15T02:41:47.127Z,42.02
2023-04-15T02:42:47.197Z,42.02
2023-04-15T02:43:47.263Z,41.99
2023-04-15T02:44:47.956Z,41.97
2023-04-15T02:45:47.480Z,41.99
2023-04-15T02:46:47.445Z,41.99
2023-04-15T02:47:47.551Z,41.94
2023-04-15T02:48:47.665Z,41.95
2023-04-15T02:49:47.682Z,41.94
2023-04-15T02:50:47.727Z,41.98
2023-04-15T02:51:47.796Z,41.94
2023-04-15T02:52:47.861Z,41.94
2023-04-15T02:53:47.913Z,41.95
2023-04-15T02:54:48.000Z,41.93
2023-04-15T02:55:48.050Z,41.90
2023-04-15T02:56:48.116Z,41.91
2023-04-15T02:57:48.200Z,41.94
2023-04-15T02:58:48.251Z,41.90
2023-04-15T02:59:48.321Z,41.90
2023-04-15T03:00:48.393Z,41.94
2023-04-15T03:01:48.557Z,41.91
2023-04-15T03:02:48.614Z,41.91
2023-04-15T03:03:48.634Z,41.90
2023-04-15T03:04:48.652Z,41.90
2023-04-15T03:05:48.722Z,41.91
2023-04-15T03:06:48.797Z,41.87
2023-04-15T03:07:48.869Z,41.88
2023-04-15T03:08:48.941Z,41.83
2023-04-15T03:09:49.014Z,41.86
2023-04-15T03:10:49.102Z,41.85
2023-04-15T03:11:49.239Z,41.87
2023-04-15T03:12:49.244Z,41.87
2023-04-15T03:13:49.468Z,41.86
2023-04-15T03:14:49.366Z,41.80
2023-04-15T03:15:49.485Z,41.83
2023-04-15T03:16:49.511Z,41.81
2023-04-15T03:17:49.855Z,41.76
2023-04-15T03:18:49.662Z,41.78
2023-04-15T03:19:49.740Z,41.76
2023-04-15T03:20:49.812Z,41.75
2023-04-15T03:21:49.884Z,41.74
2023-04-15T03:22:49.959Z,41.76
2023-04-15T03:23:50.036Z,41.71
2023-04-15T03:24:50.122Z,41.68
2023-04-15T03:25:50.198Z,41.74
2023-04-15T03:26:50.351Z,41.69
2023-04-15T03:27:50.355Z,41.73
2023-04-15T03:28:50.434Z,41.68
2023-04-15T03:29:50.519Z,41.70
2023-04-15T03:30:50.613Z,41.66
2023-04-15T03:31:50.672Z,41.62
2023-04-15T03:32:50.776Z,41.64
2023-04-15T03:33:50.816Z,41.66
2023-04-15T03:34:50.894Z,41.61
2023-04-15T03:35:51.016Z,41.64
2023-04-15T03:36:51.021Z,41.59
2023-04-15T03:37:51.969Z,41.62
2023-04-15T03:38:51.150Z,41.59
2023-04-15T03:39:51.204Z,41.57
2023-04-15T03:40:51.275Z,41.58
2023-04-15T03:41:51.428Z,41.61
2023-04-15T03:42:51.422Z,41.61
2023-04-15T03:43:51.613Z,41.63
2023-04-15T03:44:51.589Z,41.59
2023-04-15T03:45:51.659Z,41.63
2023-04-15T03:46:51.785Z,41.59
2023-04-15T03:47:51.848Z,41.58
2023-04-15T03:48:51.884Z,41.55
2023-04-15T03:49:51.948Z,41.63
2023-04-15T03:50:52.013Z,41.57
2023-04-15T03:51:52.105Z,41.57
2023-04-15T03:52:52.163Z,41.58
2023-04-15T03:53:52.251Z,41.52
2023-04-15T03:54:52.394Z,41.54
2023-04-15T03:55:52.377Z,41.52
2023-04-15T03:56:52.449Z,41.50
2023-04-15T03:57:52.551Z,41.52
2023-04-15T03:58:53.521Z,41.53
2023-04-15T03:59:52.692Z,41.48
2023-04-15T04:00:52.790Z,41.53
2023-04-15T04:01:52.891Z,41.53
2023-04-15T04:02:53.155Z,41.49
2023-04-15T04:03:53.195Z,41.49
2023-04-15T04:04:53.107Z,41.50
2023-04-15T04:05:53.108Z,41.49
2023-04-15T04:06:53.215Z,41.47
2023-04-15T04:07:53.340Z,41.50
2023-04-15T04:08:53.351Z,41.46
2023-04-15T04:09:53.422Z,41.50
2023-04-15T04:10:53.607Z,41.47
2023-04-15T04:11:53.601Z,41.46
2023-04-15T04:12:53.668Z,41.47
2023-04-15T04:13:53.703Z,41.46
2023-04-15T04:14:53.771Z,41.44
2023-04-15T04:15:53.860Z,41.46
2023-04-15T04:16:53.994Z,41.46
2023-04-15T04:17:54.018Z,41.43
2023-04-15T04:18:54.085Z,41.39
2023-04-15T04:19:54.190Z,41.39
2023-04-15T04:20:54.299Z,41.39
2023-04-15T04:21:54.359Z,41.40
2023-04-15T04:22:54.415Z,41.40
2023-04-15T04:23:54.503Z,41.46
2023-04-15T04:24:54.594Z,41.44
2023-04-15T04:25:54.668Z,41.46
2023-04-15T04:26:54.751Z,41.43
2023-04-15T04:27:54.827Z,41.43
2023-04-15T04:28:54.904Z,41.42
2023-04-15T04:29:55.004Z,41.44
2023-04-15T04:30:55.069Z,41.44
2023-04-15T04:31:55.226Z,41.42
2023-04-15T04:32:55.275Z,41.39
2023-04-15T04:33:55.349Z,41.47
2023-04-15T04:34:55.501Z,41.42
2023-04-15T04:35:55.992Z,41.38
2023-04-15T04:36:55.518Z,41.37
2023-04-15T04:37:55.587Z,41.34
2023-04-15T04:38:56.487Z,41.32
2023-04-15T04:39:55.798Z,41.37
2023-04-15T04:40:55.791Z,41.33
2023-04-15T04:41:55.843Z,41.37
2023-04-15T04:42:55.915Z,41.34
2023-04-15T04:43:55.972Z,41.37
2023-04-15T04:44:56.043Z,41.32
2023-04-15T04:45:56.146Z,41.35
2023-04-15T04:46:56.155Z,41.26
2023-04-15T04:47:56.392Z,41.28
2023-04-15T04:48:56.288Z,41.32
2023-04-15T04:49:56.356Z,41.25
2023-04-15T04:50:56.407Z,41.30
2023-04-15T04:51:56.462Z,41.25
2023-04-15T04:52:56.532Z,41.26
2023-04-15T04:53:56.607Z,41.28
2023-04-15T04:54:56.675Z,41.23
2023-04-15T04:55:56.785Z,41.24
2023-04-15T04:56:56.785Z,41.26
2023-04-15T04:57:56.831Z,41.31
2023-04-15T04:58:56.884Z,41.26
2023-04-15T04:59:57.492Z,41.23
2023-04-15T05:00:57.090Z,41.23
2023-04-15T05:01:57.136Z,41.22
2023-04-15T05:02:57.272Z,41.28
2023-04-15T05:03:58.050Z,41.24
2023-04-15T05:04:57.244Z,41.28
2023-04-15T05:05:57.323Z,41.24
2023-04-15T05:06:57.383Z,41.24
2023-04-15T05:07:57.441Z,41.28
2023-04-15T05:08:57.493Z,41.24
2023-04-15T05:09:57.556Z,41.23
2023-04-15T05:10:57.647Z,41.24
2023-04-15T05:11:57.676Z,41.19
2023-04-15T05:12:57.725Z,41.16
2023-04-15T05:13:57.794Z,41.15
2023-04-15T05:14:57.851Z,41.17
2023-04-15T05:15:57.947Z,41.18
2023-04-15T05:16:57.987Z,41.14
2023-04-15T05:17:58.059Z,41.14
2023-04-15T05:18:58.143Z,41.12
2023-04-15T05:19:58.199Z,41.15
2023-04-15T05:20:58.231Z,41.14
2023-04-15T05:21:58.304Z,41.11
2023-04-15T05:22:58.368Z,41.11
2023-04-15T05:23:58.440Z,41.07
2023-04-15T05:24:58.489Z,41.05
2023-04-15T05:25:58.552Z,41.06
2023-04-15T05:26:58.612Z,41.05
2023-04-15T05:27:58.667Z,41.05
2023-04-15T05:28:58.925Z,41.00
2023-04-15T05:29:58.776Z,41.06
2023-04-15T05:30:58.866Z,41.00
2023-04-15T05:31:58.922Z,41.05
2023-04-15T05:32:59.051Z,41.00
2023-04-15T05:33:59.034Z,41.01
2023-04-15T05:34:59.116Z,41.00
2023-04-15T05:35:59.174Z,40.94
2023-04-15T05:36:59.218Z,40.99
2023-04-15T05:37:59.295Z,40.97
2023-04-15T05:38:59.644Z,40.99
2023-04-15T05:39:59.391Z,40.97
2023-04-15T05:40:59.494Z,40.91
2023-04-15T05:41:59.524Z,40.93
2023-04-15T05:42:59.579Z,40.97
2023-04-15T05:43:59.645Z,40.92
2023-04-15T05:45:00.531Z,40.91
2023-04-15T05:45:59.820Z,40.92
2023-04-15T05:46:59.888Z,40.89
2023-04-15T05:47:59.895Z,40.87
2023-04-15T05:49:00.160Z,40.88
2023-04-15T05:50:00.004Z,40.94
2023-04-15T05:51:00.125Z,40.92
2023-04-15T05:52:00.162Z,40.88
2023-04-15T05:53:00.200Z,40.90
2023-04-15T05:54:00.250Z,40.92
2023-04-15T05:55:00.328Z,40.92
2023-04-15T05:56:00.370Z,40.92
2023-04-15T05:57:00.435Z,40.94
2023-04-15T05:58:00.470Z,40.89
2023-04-15T05:59:00.724Z,40.90
2023-04-15T06:00:00.587Z,40.89
2023-04-15T06:01:00.743Z,40.89
2023-04-15T06:02:00.753Z,40.84
2023-04-15T06:03:00.880Z,40.81
2023-04-15T06:04:00.980Z,40.85
2023-04-15T06:05:01.013Z,40.79
2023-04-15T06:06:00.971Z,40.86
2023-04-15T06:07:01.025Z,40.81
2023-04-15T06:08:01.093Z,40.81
2023-04-15T06:09:01.386Z,40.74
2023-04-15T06:10:01.230Z,40.80
2023-04-15T06:11:01.284Z,40.79
2023-04-15T06:12:01.344Z,40.74
2023-04-15T06:13:01.386Z,40.75
2023-04-15T06:14:01.517Z,40.78
2023-04-15T06:15:01.500Z,40.77
2023-04-15T06:16:01.616Z,40.75
2023-04-15T06:17:01.615Z,40.78
2023-04-15T06:18:01.743Z,40.76
2023-04-15T06:19:01.907Z,40.73
2023-04-15T06:20:01.815Z,40.72
2023-04-15T06:21:01.911Z,40.71
2023-04-15T06:22:01.921Z,40.74
2023-04-15T06:23:02.006Z,40.71
2023-04-15T06:24:02.033Z,40.70
2023-04-15T06:25:02.108Z,40.68
2023-04-15T06:26:02.165Z,40.68
2023-04-15T06:27:02.346Z,40.68
2023-04-15T06:28:02.286Z,40.67
2023-04-15T06:29:02.575Z,40.66
2023-04-15T06:30:02.404Z,40.66
2023-04-15T06:31:02.456Z,40.68
2023-04-15T06:32:02.509Z,40.64
2023-04-15T06:33:02.602Z,40.63
2023-04-15T06:34:02.601Z,40.64
2023-04-15T06:35:02.652Z,40.63
2023-04-15T06:36:02.707Z,40.67
2023-04-15T06:37:04.473Z,40.67
2023-04-15T06:38:02.789Z,40.62
2023-04-15T06:39:02.959Z,40.62
2023-04-15T06:40:02.779Z,40.60
2023-04-15T06:41:02.788Z,40.57
2023-04-15T06:42:02.790Z,40.57
2023-04-15T06:43:02.803Z,40.58
2023-04-15T06:44:02.809Z,40.53
2023-04-15T06:45:02.819Z,40.55
2023-04-15T06:46:02.900Z,40.49
2023-04-15T06:47:02.837Z,40.53
2023-04-15T06:48:02.863Z,40.49
2023-04-15T06:49:02.960Z,40.49
2023-04-15T06:50:02.866Z,40.51
2023-04-15T06:51:02.867Z,40.48
2023-04-15T06:52:02.889Z,40.43
2023-04-15T06:53:02.893Z,40.46
2023-04-15T06:54:02.908Z,40.43
2023-04-15T06:55:02.909Z,40.39
2023-04-15T06:56:02.934Z,40.43
2023-04-15T06:57:02.944Z,40.41
2023-04-15T06:58:02.952Z,40.38
2023-04-15T06:59:03.000Z,40.39
2023-04-15T07:00:02.984Z,40.30
2023-04-15T07:01:03.021Z,40.37
2023-04-15T07:02:03.051Z,40.31
2023-04-15T07:03:03.070Z,40.29
2023-04-15T07:04:03.042Z,40.33
2023-04-15T07:05:03.028Z,40.24
2023-04-15T07:06:03.024Z,40.26
2023-04-15T07:07:03.042Z,40.26
2023-04-15T07:08:03.047Z,40.23
2023-04-15T07:09:03.299Z,40.28
2023-04-15T07:10:03.128Z,40.25
2023-04-15T07:11:03.077Z,40.20
2023-04-15T07:12:03.110Z,40.25
2023-04-15T07:13:03.102Z,40.20
2023-04-15T07:14:03.109Z,40.21
2023-04-15T07:15:03.215Z,40.16
2023-04-15T07:16:03.167Z,40.17
2023-04-15T07:17:03.269Z,40.15
2023-04-15T07:18:03.357Z,40.16
2023-04-15T07:19:03.657Z,40.15
2023-04-15T07:20:03.462Z,40.14
2023-04-15T07:21:03.552Z,40.14
2023-04-15T07:22:03.643Z,40.06
2023-04-15T07:23:03.698Z,40.07
2023-04-15T07:24:03.779Z,40.08
2023-04-15T07:25:03.862Z,40.09
2023-04-15T07:26:03.941Z,40.07
2023-04-15T07:27:04.033Z,40.06
2023-04-15T07:28:04.097Z,40.02
2023-04-15T07:29:04.321Z,40.00
2023-04-15T07:30:04.262Z,40.04
2023-04-15T07:31:04.471Z,40.03
2023-04-15T07:32:04.419Z,40.00
2023-04-15T07:33:04.505Z,40.01
2023-04-15T07:34:04.570Z,40.02
2023-04-15T07:35:04.662Z,39.96
2023-04-15T07:36:04.729Z,40.01
2023-04-15T07:37:04.808Z,39.97
2023-04-15T07:38:04.902Z,39.97
2023-04-15T07:39:04.973Z,39.97
2023-04-15T07:40:05.053Z,39.96
2023-04-15T07:41:05.135Z,39.98
2023-04-15T07:42:05.225Z,39.96
2023-04-15T07:43:05.315Z,39.96
2023-04-15T07:44:05.396Z,39.96
2023-04-15T07:45:05.473Z,39.96
2023-04-15T07:46:05.634Z,39.98
2023-04-15T07:47:05.644Z,39.94
2023-04-15T07:48:05.721Z,39.98
2023-04-15T07:49:05.858Z,39.93
2023-04-15T07:50:05.894Z,39.97
2023-04-15T07:51:05.985Z,39.97
2023-04-15T07:52:06.614Z,39.94
2023-04-15T07:53:06.133Z,39.93
2023-04-15T07:54:06.224Z,39.93
2023-04-15T07:55:06.309Z,39.93
2023-04-15T07:56:06.381Z,39.93
2023-04-15T07:57:06.472Z,39.88
2023-04-15T07:58:06.538Z,39.88
2023-04-15T07:59:06.616Z,39.87
2023-04-15T08:00:06.700Z,39.91
2023-04-15T08:01:06.776Z,39.87
2023-04-15T08:02:06.913Z,39.85
2023-04-15T08:03:07.103Z,39.85
2023-04-15T08:04:07.197Z,39.89
2023-04-15T08:05:08.131Z,39.85
2023-04-15T08:06:07.163Z,39.85
2023-04-15T08:07:07.240Z,39.84
2023-04-15T08:08:07.282Z,39.85
2023-04-15T08:09:07.380Z,39.80
2023-04-15T08:10:07.452Z,39.78
2023-04-15T08:11:07.520Z,39.80
2023-04-15T08:12:07.588Z,39.79
2023-04-15T08:13:07.667Z,39.84
2023-04-15T08:14:07.754Z,39.82
2023-04-15T08:15:07.832Z,39.79
2023-04-15T08:16:08.002Z,39.77
2023-04-15T08:17:08.016Z,39.75
2023-04-15T08:18:08.076Z,39.74
2023-04-15T08:19:08.158Z,39.78
2023-04-15T08:20:08.231Z,39.73
2023-04-15T08:21:08.324Z,39.71
2023-04-15T08:22:10.396Z,39.71
2023-04-15T08:23:09.457Z,39.75
2023-04-15T08:24:08.480Z,39.73
2023-04-15T08:25:08.445Z,39.70
2023-04-15T08:26:08.458Z,39.66
2023-04-15T08:27:08.471Z,39.69
2023-04-15T08:28:08.485Z,39.69
2023-04-15T08:29:08.502Z,39.69
2023-04-15T08:30:08.543Z,39.74
2023-04-15T08:31:08.572Z,39.73
2023-04-15T08:32:08.584Z,39.70
2023-04-15T08:33:08.714Z,39.70
2023-04-15T08:34:08.748Z,39.71
2023-04-15T08:35:08.814Z,39.71
2023-04-15T08:36:08.882Z,39.70
2023-04-15T08:37:09.630Z,39.68
2023-04-15T08:38:09.044Z,39.73
2023-04-15T08:39:09.118Z,39.70
2023-04-15T08:40:09.208Z,39.70
2023-04-15T08:41:09.292Z,39.69
2023-04-15T08:42:09.375Z,39.66
2023-04-15T08:43:09.448Z,39.69
2023-04-15T08:44:09.534Z,39.74
2023-04-15T08:45:09.605Z,39.70
2023-04-15T08:46:09.685Z,39.68
2023-04-15T08:47:09.802Z,39.71
2023-04-15T08:48:09.862Z,39.65
2023-04-15T08:49:09.932Z,39.67
2023-04-15T08:50:10.006Z,39.65
2023-04-15T08:51:10.092Z,39.65
2023-04-15T08:52:11.094Z,39.64
2023-04-15T08:53:10.262Z,39.63
2023-04-15T08:54:10.347Z,39.60
2023-04-15T08:55:10.411Z,39.58
2023-04-15T08:56:10.501Z,39.53
2023-04-15T08:57:10.595Z,39.52
2023-04-15T08:58:10.663Z,39.61
2023-04-15T08:59:10.735Z,39.56
2023-04-15T09:00:10.801Z,39.57
2023-04-15T09:01:10.928Z,39.54
2023-04-15T09:02:11.032Z,39.55
2023-04-15T09:03:11.107Z,39.58
2023-04-15T09:04:11.141Z,39.56
2023-04-15T09:05:11.174Z,39.54
2023-04-15T09:06:11.263Z,39.54
2023-04-15T09:07:11.332Z,39.56
2023-04-15T09:08:11.436Z,39.52
2023-04-15T09:09:11.464Z,39.56
2023-04-15T09:10:11.549Z,39.50
2023-04-15T09:11:11.594Z,39.54
2023-04-15T09:12:11.673Z,39.54
2023-04-15T09:13:11.805Z,39.49
2023-04-15T09:14:11.816Z,39.52
2023-04-15T09:15:11.901Z,39.55
2023-04-15T09:16:11.963Z,39.55
2023-04-15T09:17:12.028Z,39.51
2023-04-15T09:18:12.117Z,39.56
2023-04-15T09:19:12.296Z,39.55
2023-04-15T09:20:12.231Z,39.54
2023-04-15T09:21:12.301Z,39.52
2023-04-15T09:22:12.389Z,39.51
2023-04-15T09:23:12.471Z,39.54
2023-04-15T09:24:12.521Z,39.53
2023-04-15T09:25:12.593Z,39.52
2023-04-15T09:26:12.661Z,39.53
2023-04-15T09:27:12.736Z,39.51
2023-04-15T09:28:12.798Z,39.45
2023-04-15T09:29:12.896Z,39.54
2023-04-15T09:30:12.926Z,39.50
2023-04-15T09:31:13.065Z,39.49
2023-04-15T09:32:13.081Z,39.52
2023-04-15T09:33:13.145Z,39.49
2023-04-15T09:34:13.211Z,39.51
2023-04-15T09:35:13.281Z,39.51
2023-04-15T09:36:13.344Z,39.50
2023-04-15T09:37:24.533Z,39.50
2023-04-15T09:38:14.633Z,39.49
2023-04-15T09:39:13.668Z,39.51
2023-04-15T09:40:13.708Z,39.44
2023-04-15T09:41:13.829Z,39.48
2023-04-15T09:42:13.805Z,39.49
2023-04-15T09:43:13.870Z,39.49
2023-04-15T09:44:13.932Z,39.48
2023-04-15T09:45:13.994Z,39.50
2023-04-15T09:46:14.096Z,39.45
2023-04-15T09:47:14.130Z,39.41
2023-04-15T09:48:14.179Z,39.44
2023-04-15T09:49:14.289Z,39.40
2023-04-15T09:50:14.315Z,39.38
2023-04-15T09:51:14.391Z,39.40
2023-04-15T09:52:14.437Z,39.40
2023-04-15T09:53:14.477Z,39.39
2023-04-15T09:54:14.543Z,39.37
2023-04-15T09:55:14.621Z,39.39
2023-04-15T09:56:14.660Z,39.44
2023-04-15T09:57:14.712Z,39.36
2023-04-15T09:58:14.768Z,39.37
2023-04-15T09:59:14.815Z,39.30
2023-04-15T10:00:14.881Z,39.35
2023-04-15T10:01:14.984Z,39.38
2023-04-15T10:02:15.020Z,39.34
2023-04-15T10:03:15.251Z,39.33
2023-04-15T10:04:15.355Z,39.33
2023-04-15T10:05:15.190Z,39.37
2023-04-15T10:06:15.219Z,39.33
2023-04-15T10:07:15.266Z,39.37
2023-04-15T10:08:15.318Z,39.31
2023-04-15T10:09:15.383Z,39.34
2023-04-15T10:10:15.472Z,39.38
2023-04-15T10:11:15.568Z,39.35
2023-04-15T10:12:15.547Z,39.37
2023-04-15T10:13:15.599Z,39.33
2023-04-15T10:14:15.660Z,39.30
2023-04-15T10:15:15.721Z,39.37
2023-04-15T10:16:15.778Z,39.32
2023-04-15T10:17:15.827Z,39.38
2023-04-15T10:18:15.871Z,39.37
2023-04-15T10:19:15.922Z,39.38
2023-04-15T10:20:15.978Z,39.39
2023-04-15T10:21:16.029Z,39.39
2023-04-15T10:22:16.094Z,39.38
2023-04-15T10:23:16.128Z,39.36
2023-04-15T10:24:16.186Z,39.36
2023-04-15T10:25:16.236Z,39.38
2023-04-15T10:26:16.288Z,39.38
2023-04-15T10:27:16.346Z,39.38
2023-04-15T10:28:16.425Z,39.35
2023-04-15T10:29:16.460Z,39.36
2023-04-15T10:30:16.509Z,39.33
2023-04-15T10:31:16.584Z,39.35
2023-04-15T10:32:16.617Z,39.33
2023-04-15T10:33:16.670Z,39.28
2023-04-15T10:34:16.729Z,39.29
2023-04-15T10:35:16.892Z,39.29
2023-04-15T10:36:16.840Z,39.26
2023-04-15T10:37:16.900Z,39.21
2023-04-15T10:38:16.945Z,39.20
2023-04-15T10:39:16.996Z,39.22
2023-04-15T10:40:17.045Z,39.18
2023-04-15T10:41:17.968Z,39.18
2023-04-15T10:42:17.183Z,39.17
2023-04-15T10:43:17.103Z,39.17
2023-04-15T10:44:17.105Z,39.16
2023-04-15T10:45:17.107Z,39.15
2023-04-15T10:46:17.209Z,39.17
2023-04-15T10:47:17.112Z,39.19
2023-04-15T10:48:17.124Z,39.18
2023-04-15T10:49:17.296Z,39.16
2023-04-15T10:50:17.132Z,39.17
2023-04-15T10:51:17.133Z,39.22
2023-04-15T10:52:17.131Z,39.20
2023-04-15T10:53:17.145Z,39.17
2023-04-15T10:54:17.148Z,39.19
2023-04-15T10:55:17.153Z,39.15
2023-04-15T10:56:17.154Z,39.16
2023-04-15T10:57:17.151Z,39.15
2023-04-15T10:58:17.165Z,39.14
2023-04-15T10:59:17.162Z,39.14
2023-04-15T11:00:17.164Z,39.19
2023-04-15T11:01:18.184Z,39.14
2023-04-15T11:02:17.285Z,39.19
2023-04-15T11:03:17.255Z,39.15
2023-04-15T11:04:17.217Z,39.13
2023-04-15T11:05:17.201Z,39.16
2023-04-15T11:06:17.173Z,39.15
2023-04-15T11:07:17.187Z,39.17
2023-04-15T11:08:17.204Z,39.14
2023-04-15T11:09:17.206Z,39.13
2023-04-15T11:10:17.220Z,39.13
2023-04-15T11:11:17.207Z,39.18
2023-04-15T11:12:17.213Z,39.14
2023-04-15T11:13:17.274Z,39.17
2023-04-15T11:14:17.228Z,39.18
2023-04-15T11:15:17.235Z,39.18
2023-04-15T11:16:18.193Z,39.16
2023-04-15T11:17:17.366Z,39.21
2023-04-15T11:18:17.258Z,39.17
2023-04-15T11:19:17.274Z,39.13
2023-04-15T11:20:17.284Z,39.18
2023-04-15T11:21:17.358Z,39.14
2023-04-15T11:22:17.284Z,39.21
2023-04-15T11:23:17.296Z,39.17
2023-04-15T11:24:17.309Z,39.12
2023-04-15T11:25:17.317Z,39.17
2023-04-15T11:26:17.318Z,39.14
2023-04-15T11:27:17.316Z,39.17
2023-04-15T11:28:17.344Z,39.11
2023-04-15T11:29:17.320Z,39.17
2023-04-15T11:30:17.330Z,39.18
2023-04-15T11:31:17.373Z,39.14
2023-04-15T11:32:17.439Z,39.17
2023-04-15T11:33:17.350Z,39.17
2023-04-15T11:34:17.360Z,39.14
2023-04-15T11:35:17.458Z,39.13
2023-04-15T11:36:17.360Z,39.16
2023-04-15T11:37:17.382Z,39.11
2023-04-15T11:38:17.389Z,39.20
2023-04-15T11:39:17.390Z,39.14
2023-04-15T11:40:17.406Z,39.20
2023-04-15T11:41:17.393Z,39.17
2023-04-15T11:42:17.429Z,39.20
2023-04-15T11:43:17.458Z,39.18
2023-04-15T11:44:17.508Z,39.17
2023-04-15T11:45:17.556Z,39.20
2023-04-15T11:46:17.712Z,39.21
2023-04-15T11:47:17.738Z,39.20
2023-04-15T11:48:18.648Z,39.18
2023-04-15T11:49:17.725Z,39.18
2023-04-15T11:50:17.760Z,39.23
2023-04-15T11:51:17.801Z,39.21
2023-04-15T11:52:17.836Z,39.22
2023-04-15T11:53:17.886Z,39.25
2023-04-15T11:54:17.928Z,39.28
2023-04-15T11:55:17.968Z,39.28
2023-04-15T11:56:18.005Z,39.32
2023-04-15T11:57:18.049Z,39.23
2023-04-15T11:58:18.101Z,39.30
2023-04-15T11:59:18.126Z,39.27
2023-04-15T12:00:18.693Z,39.22
2023-04-15T12:01:18.225Z,39.23
2023-04-15T12:02:18.451Z,39.31
2023-04-15T12:03:18.472Z,39.32
2023-04-15T12:04:19.018Z,39.32
2023-04-15T12:05:18.490Z,39.31
2023-04-15T12:06:18.462Z,39.33
2023-04-15T12:07:18.491Z,39.30
2023-04-15T12:08:18.539Z,39.27
2023-04-15T12:09:18.583Z,39.31
2023-04-15T12:10:18.638Z,39.30
2023-04-15T12:11:18.683Z,39.26
2023-04-15T12:12:18.720Z,39.28
2023-04-15T12:13:18.749Z,39.32
2023-04-15T12:14:18.801Z,39.33
2023-04-15T12:15:18.833Z,39.35
2023-04-15T12:16:19.004Z,39.36
2023-04-15T12:17:18.956Z,39.37
2023-04-15T12:18:18.972Z,39.33
2023-04-15T12:19:19.009Z,39.37
2023-04-15T12:20:19.057Z,39.38
2023-04-15T12:21:19.102Z,39.39
2023-04-15T12:22:19.145Z,39.43
2023-04-15T12:23:19.187Z,39.42
2023-04-15T12:24:19.234Z,39.47
2023-04-15T12:25:19.303Z,39.47
2023-04-15T12:26:19.331Z,39.41
2023-04-15T12:27:19.396Z,39.47
2023-04-15T12:28:19.432Z,39.47
2023-04-15T12:29:19.493Z,39.46
2023-04-15T12:30:19.531Z,39.50
2023-04-15T12:31:19.616Z,39.49
2023-04-15T12:32:19.670Z,39.50
2023-04-15T12:33:19.679Z,39.51
2023-04-15T12:34:19.786Z,39.51
2023-04-15T12:35:19.780Z,39.49
2023-04-15T12:36:19.844Z,39.52
2023-04-15T12:37:19.885Z,39.53
2023-04-15T12:38:19.937Z,39.50
2023-04-15T12:39:19.983Z,39.51
2023-04-15T12:40:20.053Z,39.48
2023-04-15T12:41:20.094Z,39.53
2023-04-15T12:42:20.138Z,39.52
2023-04-15T12:43:20.183Z,39.52
2023-04-15T12:44:20.236Z,39.57
2023-04-15T12:45:20.300Z,39.60
2023-04-15T12:46:20.401Z,39.54
2023-04-15T12:47:20.428Z,39.57
2023-04-15T12:48:20.437Z,39.54
2023-04-15T12:49:20.486Z,39.53
2023-04-15T12:50:20.534Z,39.52
2023-04-15T12:51:20.580Z,39.57
2023-04-15T12:52:20.625Z,39.52
2023-04-15T12:53:20.693Z,39.51